Time;durP1;ratioP1;P1;durP2;ratioP2;P2;SDS_P1;SDS_P2;PMS_P1;PMS_P2;Temp;Humidity;BMP_temperature;BMP_pressure;BME280_temperature;BME280_humidity;BME280_pressure;Samples;Min_cycle;Max_cycle;Signal;HPM_P1;HPM_P2
2023/03/08 00:00:20;;;;;;;88.20;45.67;;;;;;;5.25;54.88;99462.33;124707;1099;101920;-76
2023/03/08 00:03:14;;;;;;;102.40;45.77;;;;;;;5.22;55.15;99462.20;124721;1099;104205;-76
2023/03/08 00:05:44;;;;;;;;;;;;;;;5.19;55.44;99462.95;124840;1099;104169;-76
2023/03/08 00:08:16;;;;;;;90.40;45.57;;;;;;;5.17;54.75;99463.70;125015;1098;104204;-75
2023/03/08 00:10:47;;;;;;;96.43;49.53;;;;;;;5.13;54.60;99465.30;124691;1099;101977;-76
2023/03/08 00:13:19;;;;;;;91.97;50.17;;;;;;;5.07;54.54;99466.78;124733;1099;104172;-76
2023/03/08 00:15:51;;;;;;;103.17;52.17;;;;;;;5.01;54.89;99451.80;124717;1099;104169;-76
2023/03/08 00:18:23;;;;;;;102.87;50.07;;;;;;;4.97;55.11;99453.39;124746;1099;104197;-75
2023/03/08 00:21:02;;;;;;;94.83;48.93;;;;;;;4.91;55.10;99454.83;124690;1099;102099;-76
2023/03/08 00:23:34;;;;;;;89.47;48.50;;;;;;;4.88;55.31;99459.91;124766;1099;104169;-75
2023/03/08 00:26:05;;;;;;;95.40;48.93;;;;;;;4.86;55.03;99452.95;124731;1098;101890;-76
2023/03/08 00:28:37;;;;;;;96.83;50.53;;;;;;;4.84;55.49;99448.50;124710;1098;104287;-75
2023/03/08 00:31:10;;;;;;;99.40;51.27;;;;;;;4.84;55.84;99443.30;124693;1099;104166;-75
2023/03/08 00:33:41;;;;;;;98.03;50.63;;;;;;;4.83;55.44;99442.42;124735;1099;104172;-76
2023/03/08 00:36:17;;;;;;;108.70;54.07;;;;;;;4.83;55.66;99438.91;124724;1099;104241;-75
2023/03/08 00:38:49;;;;;;;107.37;53.73;;;;;;;4.81;55.81;99433.66;124650;1099;101818;-75
2023/03/08 00:41:21;;;;;;;103.80;52.93;;;;;;;4.77;55.91;99438.66;124252;1099;101827;-75
2023/03/08 00:43:52;;;;;;;93.63;51.50;;;;;;;4.65;56.21;99431.26;124742;1098;104214;-75
2023/03/08 00:46:24;;;;;;;94.87;49.83;;;;;;;4.56;55.83;99434.34;124773;1099;104216;-75
2023/03/08 00:48:55;;;;;;;101.97;50.27;;;;;;;4.56;56.12;99431.74;124724;1099;102769;-75
2023/03/08 00:51:27;;;;;;;97.27;49.03;;;;;;;4.59;56.47;99431.88;124732;1099;104230;-76
2023/03/08 00:53:58;;;;;;;92.33;48.07;;;;;;;4.60;55.99;99431.06;124730;1099;104001;-75
2023/03/08 00:56:29;;;;;;;92.93;50.63;;;;;;;4.62;56.44;99421.61;124719;1099;102067;-75
2023/03/08 00:59:01;;;;;;;95.30;48.83;;;;;;;4.63;55.98;99423.40;124255;1099;104425;-75
2023/03/08 01:01:32;;;;;;;92.73;47.47;;;;;;;4.65;56.44;99419.14;124672;1099;104230;-76
2023/03/08 01:04:04;;;;;;;97.87;49.13;;;;;;;4.66;56.55;99407.94;125918;1098;101887;-77
2023/03/08 01:06:35;;;;;;;99.47;49.43;;;;;;;4.60;56.21;99410.27;124687;1099;104271;-76
2023/03/08 01:09:07;;;;;;;94.30;49.10;;;;;;;4.59;56.71;99415.41;124731;1099;104201;-76
2023/03/08 01:11:39;;;;;;;98.60;49.83;;;;;;;4.60;56.56;99412.88;124655;1099;104226;-76
2023/03/08 01:14:10;;;;;;;97.10;49.87;;;;;;;4.57;56.37;99411.87;124699;1099;104242;-75
2023/03/08 01:16:42;;;;;;;95.60;49.90;;;;;;;4.52;56.49;99418.55;124706;1099;104165;-76
2023/03/08 01:19:13;;;;;;;98.00;47.67;;;;;;;4.52;56.34;99414.27;124770;1099;104220;-75
2023/03/08 01:21:49;;;;;;;88.50;46.53;;;;;;;4.54;56.71;99414.34;124653;1099;104211;-76
2023/03/08 01:24:21;;;;;;;106.67;59.40;;;;;;;4.53;56.63;99410.83;124621;1098;104265;-75
2023/03/08 01:26:54;;;;;;;111.00;63.00;;;;;;;4.48;56.86;99422.74;124786;1099;104111;-75
2023/03/08 01:29:26;;;;;;;96.33;53.33;;;;;;;4.48;56.62;99414.95;124663;1098;104166;-75
2023/03/08 01:31:57;;;;;;;100.50;54.30;;;;;;;4.48;56.80;99407.16;124724;1099;104337;-76
2023/03/08 01:34:28;;;;;;;102.90;55.73;;;;;;;4.52;57.32;99409.08;124696;1099;119493;-75
2023/03/08 01:36:59;;;;;;;89.23;48.00;;;;;;;4.55;57.27;99411.80;124725;1098;104220;-75
2023/03/08 01:39:31;;;;;;;102.83;54.73;;;;;;;4.53;57.13;99410.83;124728;1099;104239;-75
2023/03/08 01:42:06;;;;;;;95.33;50.20;;;;;;;4.49;57.05;99399.43;124690;1099;104214;-75
2023/03/08 01:44:55;;;;;;;91.53;46.40;;;;;;;4.45;57.06;99400.11;124759;1099;104175;-75
2023/03/08 01:47:29;;;;;;;91.90;45.60;;;;;;;4.42;57.38;99399.10;124680;1099;104644;-75
2023/03/08 01:50:29;;;;;;;87.77;45.00;;;;;;;4.38;57.18;99400.69;124215;1102;104329;-75
2023/03/08 01:53:00;;;;;;;85.83;45.53;;;;;;;4.36;57.72;99401.44;124740;1099;104179;-75
2023/03/08 01:55:32;;;;;;;88.07;45.87;;;;;;;4.37;57.48;99390.23;124657;1099;101874;-76
2023/03/08 01:58:04;;;;;;;82.73;45.20;;;;;;;4.41;57.24;99380.05;125822;1099;104150;-75
2023/03/08 02:00:35;;;;;;;85.93;43.13;;;;;;;4.44;57.44;99379.27;124608;1099;104300;-75
2023/03/08 02:03:10;;;;;;;82.53;42.40;;;;;;;4.39;57.40;99378.19;124714;1099;104301;-75
2023/03/08 02:05:43;;;;;;;81.50;41.30;;;;;;;4.29;57.87;99389.91;124705;1099;104169;-75
2023/03/08 02:08:24;;;;;;;78.97;41.43;;;;;;;4.24;58.11;99391.40;124727;1099;102309;-75
2023/03/08 02:10:56;;;;;;;84.00;41.85;;;;;;;4.24;57.65;99392.30;124725;1099;104192;-76
2023/03/08 02:13:28;;;;;;;83.70;43.17;;;;;;;4.27;57.78;99392.44;124674;1099;101937;-75
2023/03/08 02:16:02;;;;;;;83.47;42.13;;;;;;;4.27;57.85;99391.53;124646;1099;104249;-75
2023/03/08 02:18:34;;;;;;;83.90;42.97;;;;;;;4.23;57.91;99390.52;124619;1099;101815;-76
2023/03/08 02:21:05;;;;;;;77.50;42.17;;;;;;;4.19;57.93;99393.83;124386;1099;104240;-76
2023/03/08 02:23:38;;;;;;;78.93;43.37;;;;;;;4.13;58.59;99397.03;124657;1099;102023;-75
2023/03/08 02:26:09;;;;;;;85.00;42.05;;;;;;;4.04;58.61;99395.75;124636;1098;104014;-75
2023/03/08 02:28:40;;;;;;;80.10;42.33;;;;;;;3.94;58.07;99390.16;124730;1099;104335;-76
2023/03/08 02:31:12;;;;;;;87.27;43.87;;;;;;;3.88;57.71;99395.07;124657;1098;104290;-75
2023/03/08 02:33:43;;;;;;;80.10;42.47;;;;;;;3.86;58.54;99398.41;124641;1099;104176;-75
2023/03/08 02:36:15;;;;;;;84.13;43.03;;;;;;;3.85;58.11;99388.84;124684;1099;104245;-75
2023/03/08 02:38:47;;;;;;;86.50;43.00;;;;;;;3.84;57.92;99389.67;124238;1099;104281;-75
2023/03/08 02:41:19;;;;;;;80.03;40.70;;;;;;;3.87;58.32;99384.63;124591;1099;101990;-75
2023/03/08 02:43:50;;;;;;;75.23;39.27;;;;;;;3.90;58.59;99384.76;124699;1099;102487;-75
2023/03/08 02:46:21;;;;;;;79.37;41.17;;;;;;;3.92;58.48;99388.30;124651;1099;104252;-75
2023/03/08 02:48:52;;;;;;;81.50;39.30;;;;;;;3.94;59.11;99390.16;124730;1099;104175;-75
2023/03/08 02:51:25;;;;;;;77.60;36.00;;;;;;;3.99;58.83;99390.36;124633;1099;102317;-75
2023/03/08 02:53:56;;;;;;;73.37;37.20;;;;;;;4.01;58.58;99391.30;124640;1099;102510;-75
2023/03/08 02:56:28;;;;;;;70.57;35.47;;;;;;;4.06;59.12;99387.19;124238;1099;104163;-75
2023/03/08 02:58:59;;;;;;;68.30;35.00;;;;;;;4.06;58.68;99386.31;124289;1099;104233;-76
2023/03/08 03:01:31;;;;;;;74.03;36.53;;;;;;;4.04;58.41;99385.37;124305;1099;104188;-75
2023/03/08 03:04:03;;;;;;;76.27;37.37;;;;;;;3.99;59.59;99389.45;124396;1099;101914;-75
2023/03/08 03:06:36;;;;;;;74.57;39.03;;;;;;;3.92;58.97;99391.77;124711;1098;107101;-75
2023/03/08 03:09:10;;;;;;;78.50;38.50;;;;;;;3.85;58.72;99392.34;124761;1099;102158;-75
2023/03/08 03:11:41;;;;;;;73.10;36.73;;;;;;;3.78;59.78;99400.66;124729;1098;101859;-75
2023/03/08 03:14:13;;;;;;;75.47;38.30;;;;;;;3.73;59.36;99396.97;124670;1099;104188;-75
2023/03/08 03:16:46;;;;;;;77.03;38.37;;;;;;;3.72;59.12;99400.38;124664;1099;102589;-75
2023/03/08 03:19:17;;;;;;;67.67;36.23;;;;;;;3.74;59.75;99401.33;124623;1099;104272;-76
2023/03/08 03:21:48;;;;;;;71.13;35.67;;;;;;;3.78;58.71;99404.13;124719;1098;101880;-75
2023/03/08 03:24:20;;;;;;;68.70;35.83;;;;;;;3.84;59.26;99405.25;124619;1099;101928;-75
2023/03/08 03:26:57;;;;;;;72.13;36.73;;;;;;;3.90;59.24;99408.99;124713;1099;101823;-75
2023/03/08 03:29:30;;;;;;;75.40;39.57;;;;;;;3.95;58.81;99410.08;124654;1099;104245;-75
2023/03/08 03:32:10;;;;;;;73.80;38.83;;;;;;;3.95;59.28;99412.67;125063;1099;102015;-75
2023/03/08 03:34:42;;;;;;;81.77;44.37;;;;;;;3.92;59.09;99407.34;124673;1099;104271;-75
2023/03/08 03:37:13;;;;;;;85.40;45.07;;;;;;;3.90;59.23;99406.40;124656;1098;110725;-75
2023/03/08 03:39:46;;;;;;;81.60;44.17;;;;;;;3.90;59.29;99401.20;124800;1099;101858;-75
2023/03/08 03:42:19;;;;;;;77.30;42.73;;;;;;;3.93;58.98;99395.28;124724;1098;104175;-75
2023/03/08 03:44:59;;;;;;;77.57;39.20;;;;;;;3.97;59.43;99399.77;124223;1099;104050;-75
2023/03/08 03:47:30;;;;;;;70.33;37.50;;;;;;;4.00;59.16;99397.30;125514;1098;104169;-75
2023/03/08 03:50:03;;;;;;;73.55;37.05;;;;;;;3.98;59.54;99404.14;124606;1099;104275;-75
2023/03/08 03:52:41;;;;;;;69.50;35.50;;;;;;;3.97;59.54;99407.55;124626;1098;104219;-75
2023/03/08 03:55:12;;;;;;;68.37;35.90;;;;;;;3.98;59.47;99411.93;124605;1099;101927;-75
2023/03/08 03:57:44;;;;;;;74.80;37.10;;;;;;;3.99;59.14;99411.12;125690;1099;108106;-75
2023/03/08 04:00:20;;;;;;;68.50;36.68;;;;;;;4.01;59.12;99412.06;124703;1099;101929;-75
2023/03/08 04:02:56;;;;;;;71.67;37.47;;;;;;;4.01;59.99;99408.59;124653;1099;104274;-76
2023/03/08 04:05:28;;;;;;;82.80;41.77;;;;;;;3.96;59.79;99404.08;124702;1099;101931;-76
2023/03/08 04:08:00;;;;;;;85.53;43.00;;;;;;;3.93;59.61;99406.53;124653;1099;118918;-75
2023/03/08 04:10:34;;;;;;;87.20;44.73;;;;;;;3.93;59.96;99405.66;124615;1099;104182;-75
2023/03/08 04:13:06;;;;;;;80.77;41.27;;;;;;;3.93;59.83;99395.28;124262;1102;101987;-75
2023/03/08 04:15:37;;;;;;;85.97;41.60;;;;;;;3.96;59.77;99390.22;124431;1099;101907;-75
2023/03/08 04:18:10;;;;;;;75.70;39.00;;;;;;;3.99;60.26;99395.55;124727;1096;101891;-75
2023/03/08 04:20:44;;;;;;;79.10;38.95;;;;;;;3.99;59.84;99389.45;124668;1098;102512;-76
2023/03/08 04:23:15;;;;;;;76.20;39.43;;;;;;;4.01;59.76;99398.21;124260;1099;104054;-75
2023/03/08 04:25:51;;;;;;;74.97;39.53;;;;;;;4.00;60.48;99397.30;124319;1099;104277;-75
2023/03/08 04:28:24;;;;;;;80.80;39.63;;;;;;;4.01;59.33;99387.83;124268;1099;104184;-75
2023/03/08 04:30:55;;;;;;;78.10;40.60;;;;;;;4.03;59.50;99392.25;124279;1099;104159;-75
2023/03/08 04:33:27;;;;;;;78.03;38.73;;;;;;;4.06;59.56;99399.30;124684;1098;102024;-76
2023/03/08 04:35:58;;;;;;;75.90;36.77;;;;;;;4.09;59.54;99389.92;124592;1099;104246;-75
2023/03/08 04:38:32;;;;;;;70.27;35.67;;;;;;;4.12;60.11;99397.84;124608;1099;104310;-75
2023/03/08 04:41:09;;;;;;;70.57;36.80;;;;;;;4.15;59.81;99402.30;124301;1099;104236;-75
2023/03/08 04:43:49;;;;;;;68.07;36.05;;;;;;;4.11;59.92;99410.76;125708;1099;101822;-75
2023/03/08 04:46:24;;;;;;;72.80;36.67;;;;;;;4.10;60.26;99409.00;124688;1099;101901;-75
2023/03/08 04:48:56;;;;;;;73.05;38.08;;;;;;;4.11;60.36;99405.56;125658;1099;108367;-75
2023/03/08 04:51:29;;;;;;;69.23;36.30;;;;;;;4.13;60.45;99416.92;124719;1099;104223;-75
2023/03/08 04:54:03;;;;;;;72.07;37.37;;;;;;;4.17;60.94;99417.94;124296;1099;104201;-75
2023/03/08 04:56:34;;;;;;;75.73;38.07;;;;;;;4.19;60.29;99413.69;124242;1099;104194;-75
2023/03/08 04:59:06;;;;;;;74.53;36.63;;;;;;;4.20;60.17;99421.55;124611;1099;102135;-75
2023/03/08 05:01:37;;;;;;;67.80;34.30;;;;;;;4.23;60.92;99421.69;124228;1099;104104;-75
2023/03/08 05:04:11;;;;;;;79.33;35.47;;;;;;;4.26;59.90;99429.61;124684;1099;104201;-75
2023/03/08 05:06:43;;;;;;;65.23;33.60;;;;;;;4.29;60.68;99431.46;124648;1099;101871;-75
2023/03/08 05:09:16;;;;;;;66.30;34.35;;;;;;;4.32;59.97;99435.07;124715;1099;104172;-75
2023/03/08 05:11:49;;;;;;;65.67;33.60;;;;;;;4.37;60.35;99439.59;124306;1099;104169;-76
2023/03/08 05:14:21;;;;;;;73.70;33.73;;;;;;;4.45;60.81;99438.20;124175;1099;104414;-76
2023/03/08 05:16:56;;;;;;;68.37;32.83;;;;;;;4.51;60.59;99443.66;124687;1097;104217;-76
2023/03/08 05:19:28;;;;;;;64.90;31.80;;;;;;;4.56;60.81;99442.14;124681;1098;104172;-76
2023/03/08 05:21:59;;;;;;;65.00;33.23;;;;;;;4.62;60.74;99446.72;124647;1099;104217;-75
2023/03/08 05:24:31;;;;;;;71.10;32.20;;;;;;;4.65;61.13;99447.72;124694;1099;104252;-76
2023/03/08 05:27:03;;;;;;;70.50;33.77;;;;;;;4.67;60.52;99442.59;124719;1099;104175;-75
2023/03/08 05:29:36;;;;;;;73.30;36.03;;;;;;;4.62;61.13;99444.13;124675;1099;104166;-76
2023/03/08 05:32:10;;;;;;;76.07;37.93;;;;;;;4.56;61.06;99441.26;124687;1099;104169;-75
2023/03/08 05:34:41;;;;;;;80.03;37.93;;;;;;;4.47;61.06;99441.74;124734;1099;104201;-75
2023/03/08 05:37:15;;;;;;;69.50;38.70;;;;;;;4.46;60.61;99445.19;124681;1099;101900;-75
2023/03/08 05:39:49;;;;;;;69.97;36.10;;;;;;;4.51;60.44;99433.27;124606;1099;104121;-75
2023/03/08 05:42:23;;;;;;;71.63;35.37;;;;;;;4.58;60.51;99434.41;124694;1099;104201;-75
2023/03/08 05:44:55;;;;;;;69.73;33.93;;;;;;;4.65;60.97;99433.86;124690;1099;101935;-75
2023/03/08 05:47:30;;;;;;;70.30;33.47;;;;;;;4.73;60.67;99434.17;124681;1099;101897;-75
2023/03/08 05:50:01;;;;;;;68.40;33.93;;;;;;;4.83;60.73;99433.72;124729;1099;104345;-75
2023/03/08 05:52:34;;;;;;;64.00;33.23;;;;;;;4.97;60.91;99434.29;124617;1099;104194;-75
2023/03/08 05:55:06;;;;;;;62.97;30.43;;;;;;;5.12;60.94;99429.72;124679;1099;104213;-75
2023/03/08 05:57:38;;;;;;;62.63;32.03;;;;;;;5.25;61.07;99431.11;124597;1098;104235;-75
2023/03/08 06:00:12;;;;;;;57.50;31.57;;;;;;;5.39;60.78;99422.13;124724;1099;101830;-75
2023/03/08 06:02:51;;;;;;;58.43;31.37;;;;;;;5.54;61.27;99436.55;124669;1099;102519;-75
2023/03/08 06:05:24;;;;;;;60.80;31.67;;;;;;;5.70;61.38;99436.33;124619;1099;104307;-75
2023/03/08 06:07:56;;;;;;;;;;;;;;;5.87;61.27;99439.54;124698;1099;104053;-75
2023/03/08 06:10:27;;;;;;;56.03;30.63;;;;;;;6.04;61.19;99434.12;124681;1099;104278;-75
2023/03/08 06:12:59;;;;;;;61.23;32.03;;;;;;;6.18;61.11;99424.20;124626;1098;101899;-75
2023/03/08 06:15:30;;;;;;;61.27;30.87;;;;;;;6.32;61.19;99414.28;124651;1099;104211;-75
2023/03/08 06:18:02;;;;;;;52.70;29.20;;;;;;;6.50;61.08;99417.53;125921;1098;104252;-75
2023/03/08 06:20:34;;;;;;;57.47;31.43;;;;;;;6.70;61.20;99410.39;124408;1099;101919;-75
2023/03/08 06:23:05;;;;;;;53.73;29.57;;;;;;;6.89;61.28;99417.09;124582;1099;104163;-75
2023/03/08 06:25:37;;;;;;;55.40;29.17;;;;;;;7.12;61.19;99424.77;124621;1099;104277;-75
2023/03/08 06:28:09;;;;;;;54.93;28.93;;;;;;;7.37;61.29;99434.29;124762;1099;101923;-75
2023/03/08 06:30:43;;;;;;;53.30;27.15;;;;;;;7.60;61.02;99437.59;124604;1099;104345;-75
2023/03/08 06:33:14;;;;;;;46.27;24.20;;;;;;;7.83;60.67;99437.41;125917;1098;104241;-76
2023/03/08 06:35:54;;;;;;;49.47;26.17;;;;;;;8.13;61.04;99439.13;124614;1099;104348;-75
2023/03/08 06:38:26;;;;;;;40.53;23.03;;;;;;;8.38;61.24;99443.31;125933;1098;101814;-75
2023/03/08 06:40:58;;;;;;;34.57;19.10;;;;;;;8.67;60.73;99436.28;124538;1099;104287;-75
2023/03/08 06:43:30;;;;;;;37.17;20.73;;;;;;;8.94;60.89;99438.74;124700;1099;104165;-75
2023/03/08 06:46:05;;;;;;;37.27;17.03;;;;;;;9.16;60.96;99426.16;124612;1099;104325;-75
2023/03/08 06:48:37;;;;;;;33.33;17.03;;;;;;;9.41;60.92;99426.74;125980;1098;104226;-75
2023/03/08 06:51:09;;;;;;;30.07;14.07;;;;;;;9.61;60.67;99425.45;124562;1099;101997;-75
2023/03/08 06:53:40;;;;;;;26.90;12.47;;;;;;;9.85;60.40;99419.88;125603;1099;104369;-75
2023/03/08 06:56:15;;;;;;;22.63;10.93;;;;;;;10.13;59.85;99419.55;124549;1099;104284;-75
2023/03/08 06:58:46;;;;;;;20.85;9.83;;;;;;;10.37;59.79;99409.58;124627;1098;104265;-75
2023/03/08 07:01:18;;;;;;;20.73;9.63;;;;;;;10.61;60.12;99426.62;124613;1099;104230;-75
2023/03/08 07:03:50;;;;;;;22.45;10.50;;;;;;;10.81;59.75;99419.11;124625;1099;102464;-75
2023/03/08 07:06:22;;;;;;;21.05;10.20;;;;;;;10.98;59.57;99429.90;124644;1099;102000;-75
2023/03/08 07:08:53;;;;;;;20.13;10.10;;;;;;;11.10;59.00;99422.23;124577;1099;104340;-75
2023/03/08 07:11:26;;;;;;;22.60;10.53;;;;;;;11.21;58.99;99422.41;124554;1099;104230;-75
2023/03/08 07:13:59;;;;;;;22.83;10.70;;;;;;;11.33;58.60;99416.48;124644;1099;104220;-74
2023/03/08 07:16:30;;;;;;;22.13;11.20;;;;;;;11.45;58.34;99418.38;124620;1099;102032;-75
2023/03/08 07:19:03;;;;;;;22.83;10.83;;;;;;;11.57;58.07;99429.07;124653;1098;104272;-75
2023/03/08 07:21:36;;;;;;;31.93;11.43;;;;;;;11.65;57.92;99431.81;124586;1099;104313;-75
2023/03/08 07:24:08;;;;;;;29.27;12.03;;;;;;;11.78;57.82;99433.77;124646;1099;104227;-75
2023/03/08 07:26:39;;;;;;;24.47;10.87;;;;;;;11.94;57.39;99429.62;124613;1099;104227;-75
2023/03/08 07:29:10;;;;;;;24.03;11.33;;;;;;;12.05;57.05;99438.52;124627;1099;104224;-75
2023/03/08 07:31:42;;;;;;;23.80;11.00;;;;;;;12.14;56.81;99444.75;124564;1099;101939;-75
2023/03/08 07:34:13;;;;;;;22.40;10.53;;;;;;;12.20;56.97;99442.19;124578;1099;104163;-75
2023/03/08 07:36:44;;;;;;;25.60;11.37;;;;;;;12.26;56.39;99444.90;124595;1099;104169;-75
2023/03/08 07:39:16;;;;;;;23.13;10.50;;;;;;;12.34;55.94;99434.47;124577;1099;104227;-75
2023/03/08 07:41:48;;;;;;;28.93;12.83;;;;;;;12.42;56.04;99435.46;124574;1099;104217;-75
2023/03/08 07:44:20;;;;;;;25.67;11.90;;;;;;;12.48;56.06;99431.99;124579;1099;102464;-75
2023/03/08 07:46:51;;;;;;;27.47;11.70;;;;;;;12.54;55.59;99432.06;124494;1098;104117;-75
2023/03/08 07:49:22;;;;;;;24.87;11.77;;;;;;;12.58;55.02;99439.13;124559;1099;104339;-75
2023/03/08 07:51:54;;;;;;;24.23;11.17;;;;;;;12.63;55.45;99420.76;124615;1098;104375;-75
2023/03/08 07:54:26;;;;;;;23.73;11.17;;;;;;;12.66;54.77;99423.42;124599;1099;104224;-75
2023/03/08 07:56:57;;;;;;;23.77;11.47;;;;;;;12.73;54.77;99417.33;124571;1099;104214;-75
2023/03/08 07:59:29;;;;;;;20.67;10.27;;;;;;;12.82;54.82;99414.78;124578;1099;104249;-75
2023/03/08 08:02:00;;;;;;;24.97;11.17;;;;;;;12.93;54.28;99410.52;124604;1099;104344;-75
2023/03/08 08:04:31;;;;;;;26.53;10.90;;;;;;;13.10;54.23;99408.03;124573;1099;104236;-75
2023/03/08 08:07:03;;;;;;;23.87;10.73;;;;;;;13.25;53.95;99404.61;124874;1099;104166;-75
2023/03/08 08:09:36;;;;;;;23.13;10.97;;;;;;;13.41;53.63;99415.30;124557;1099;103093;-75
2023/03/08 08:12:08;;;;;;;23.80;11.30;;;;;;;13.57;54.04;99401.36;124524;1099;104200;-75
2023/03/08 08:14:40;;;;;;;26.55;11.60;;;;;;;13.73;53.37;99406.69;124603;1099;104063;-75
2023/03/08 08:17:12;;;;;;;21.83;11.10;;;;;;;13.89;53.51;99403.27;125018;1098;104254;-75
2023/03/08 08:19:43;;;;;;;24.57;10.90;;;;;;;14.05;52.55;99404.20;124601;1099;104239;-75
2023/03/08 08:22:15;;;;;;;24.60;10.33;;;;;;;14.17;52.62;99403.39;124613;1099;102035;-75
2023/03/08 08:24:46;;;;;;;20.20;9.23;;;;;;;14.29;51.91;99402.53;124582;1099;104432;-75
2023/03/08 08:27:17;;;;;;;22.40;9.90;;;;;;;14.43;52.00;99407.84;125166;1098;104271;-75
2023/03/08 08:29:50;;;;;;;22.93;8.70;;;;;;;14.55;52.14;99392.94;124603;1099;104264;-75
2023/03/08 08:32:22;;;;;;;20.07;8.83;;;;;;;14.68;51.67;99398.28;124578;1099;104249;-75
2023/03/08 08:34:53;;;;;;;18.30;7.80;;;;;;;14.83;51.37;99407.95;124626;1099;102090;-75
2023/03/08 08:37:24;;;;;;;21.03;8.57;;;;;;;14.89;49.75;99400.04;124566;1099;101887;-75
2023/03/08 08:39:55;;;;;;;25.87;8.40;;;;;;;14.93;50.38;99396.53;124579;1099;104169;-75
2023/03/08 08:42:27;;;;;;;16.77;7.30;;;;;;;15.06;49.81;99406.20;124606;1099;104159;-75
2023/03/08 08:44:58;;;;;;;17.07;7.30;;;;;;;15.29;49.39;99400.04;124618;1099;104245;-75
2023/03/08 08:47:31;;;;;;;18.97;7.77;;;;;;;15.54;49.13;99398.23;124605;1099;101934;-75
2023/03/08 08:50:02;;;;;;;16.17;7.50;;;;;;;15.75;48.94;99386.73;124503;1098;104249;-75
2023/03/08 08:52:34;;;;;;;16.33;6.63;;;;;;;15.93;49.34;99390.22;124535;1099;104248;-75
2023/03/08 08:55:06;;;;;;;16.20;6.30;;;;;;;16.12;48.57;99391.88;124575;1099;104229;-75
2023/03/08 08:57:37;;;;;;;13.93;5.93;;;;;;;16.30;47.62;99382.12;124588;1099;101836;-75
2023/03/08 09:00:13;;;;;;;14.80;6.27;;;;;;;16.50;47.53;99385.52;124591;1099;101948;-75
2023/03/08 09:02:45;;;;;;;13.80;5.93;;;;;;;16.68;46.85;99388.92;125730;1099;101865;-75
2023/03/08 09:05:16;;;;;;;14.05;5.95;;;;;;;16.91;47.26;99374.65;124508;1099;102229;-75
2023/03/08 09:07:48;;;;;;;13.97;5.50;;;;;;;17.04;47.12;99369.23;124572;1099;104230;-75
2023/03/08 09:10:19;;;;;;;13.83;5.53;;;;;;;17.11;46.23;99366.53;124591;1099;104335;-75
2023/03/08 09:12:57;;;;;;;12.43;5.07;;;;;;;17.20;46.02;99362.05;124628;1099;101874;-75
2023/03/08 09:15:29;;;;;;;14.60;5.23;;;;;;;17.35;46.02;99362.78;124581;1099;104194;-73
2023/03/08 09:18:00;;;;;;;10.73;4.40;;;;;;;17.42;45.58;99360.05;124534;1098;104245;-73
2023/03/08 09:20:32;;;;;;;9.33;4.33;;;;;;;17.48;44.84;99366.17;124138;1096;104233;-73
2023/03/08 09:23:03;;;;;;;10.33;3.83;;;;;;;17.46;44.14;99352.94;124657;1098;101878;-73
2023/03/08 09:25:34;;;;;;;10.40;4.30;;;;;;;17.47;44.54;99353.80;124631;1099;102006;-75
2023/03/08 09:28:06;;;;;;;8.10;4.00;;;;;;;17.51;44.61;99358.19;124541;1099;103751;-74
2023/03/08 09:30:37;;;;;;;14.87;4.60;;;;;;;17.55;44.06;99358.14;124579;1099;104200;-73
2023/03/08 09:33:08;;;;;;;10.53;4.50;;;;;;;17.61;43.23;99363.38;124550;1099;104325;-74
2023/03/08 09:35:40;;;;;;;13.87;4.93;;;;;;;17.60;42.91;99364.27;124566;1099;102322;-73
2023/03/08 09:38:11;;;;;;;12.47;4.90;;;;;;;17.57;42.68;99366.95;125878;1098;104307;-74
2023/03/08 09:40:56;;;;;;;10.63;4.70;;;;;;;17.60;42.78;99361.61;124557;1099;104227;-74
2023/03/08 09:43:39;;;;;;;17.93;5.03;;;;;;;17.55;42.39;99371.40;124586;1099;104319;-73
2023/03/08 09:46:16;;;;;;;12.47;5.10;;;;;;;17.45;42.12;99372.38;124620;1099;104162;-73
2023/03/08 09:48:51;;;;;;;14.97;5.67;;;;;;;17.38;41.89;99370.70;124693;1099;104163;-73
2023/03/08 09:51:27;;;;;;;13.53;5.33;;;;;;;17.38;42.09;99376.87;124611;1098;104260;-73
2023/03/08 09:54:04;;;;;;;17.47;6.50;;;;;;;17.38;41.37;99370.70;124569;1098;104264;-73
2023/03/08 09:56:42;;;;;;;14.10;6.20;;;;;;;17.42;41.74;99370.66;124634;1099;104248;-73
2023/03/08 09:59:19;;;;;;;15.67;7.13;;;;;;;17.39;41.07;99368.04;124605;1098;101916;-73
2023/03/08 10:01:57;;;;;;;15.97;7.00;;;;;;;17.41;40.66;99368.89;124606;1099;104252;-73
2023/03/08 10:04:45;;;;;;;13.70;6.73;;;;;;;17.41;40.51;99366.23;124625;1099;104227;-73
2023/03/08 10:07:25;;;;;;;14.73;7.10;;;;;;;17.45;40.53;99359.13;124592;1099;104206;-73
2023/03/08 10:10:13;;;;;;;14.63;7.13;;;;;;;17.52;40.47;99357.30;124636;1099;104173;-74
2023/03/08 10:12:56;;;;;;;17.37;7.20;;;;;;;17.58;40.73;99355.45;124621;1099;101961;-73
2023/03/08 10:15:31;;;;;;;15.68;7.28;;;;;;;17.70;40.46;99362.41;124547;1099;101900;-73
2023/03/08 10:18:10;;;;;;;14.63;6.60;;;;;;;17.81;40.81;99354.32;125848;1098;101961;-73
2023/03/08 10:20:42;;;;;;;16.07;7.00;;;;;;;17.84;40.49;99350.73;124562;1099;104054;-73
2023/03/08 10:23:17;;;;;;;16.53;6.50;;;;;;;17.84;40.02;99358.69;124593;1099;104159;-74
2023/03/08 10:25:50;;;;;;;12.63;6.27;;;;;;;17.82;40.02;99350.75;124605;1098;111733;-74
2023/03/08 10:28:25;;;;;;;22.23;6.87;;;;;;;17.85;39.99;99349.84;124608;1099;104185;-73
2023/03/08 10:30:59;;;;;;;19.43;6.77;;;;;;;17.83;40.16;99347.21;124665;1099;104218;-74
2023/03/08 10:33:35;;;;;;;25.60;7.80;;;;;;;17.82;39.88;99345.44;124608;1099;104193;-73
2023/03/08 10:36:16;;;;;;;23.50;7.43;;;;;;;17.77;40.10;99332.23;124346;1099;104313;-73
2023/03/08 10:38:59;;;;;;;21.90;7.60;;;;;;;17.77;39.87;99337.54;124543;1099;104230;-73
2023/03/08 10:41:31;;;;;;;16.53;7.17;;;;;;;17.74;40.08;99326.09;124127;1099;103756;-73
2023/03/08 10:44:03;;;;;;;13.83;6.37;;;;;;;17.72;39.90;99318.16;125946;1098;101897;-73
2023/03/08 10:46:48;;;;;;;18.10;7.30;;;;;;;17.71;39.94;99321.70;124593;1098;107108;-74
2023/03/08 10:49:23;;;;;;;16.75;6.70;;;;;;;17.69;39.66;99325.28;124477;1099;104227;-73
2023/03/08 10:51:57;;;;;;;15.93;7.03;;;;;;;17.64;39.89;99325.34;124609;1099;102005;-73
2023/03/08 10:54:29;;;;;;;14.75;6.55;;;;;;;17.58;40.02;99320.11;124565;1098;104357;-74
2023/03/08 10:57:02;;;;;;;16.20;6.43;;;;;;;17.58;40.07;99305.06;124622;1099;104354;-73
2023/03/08 10:59:35;;;;;;;16.63;7.10;;;;;;;17.51;39.55;99303.36;124660;1098;104369;-74
2023/03/08 11:02:22;;;;;;;14.70;6.37;;;;;;;17.49;39.23;99297.20;124557;1098;104207;-73
2023/03/08 11:04:55;;;;;;;11.77;5.40;;;;;;;17.45;39.18;99292.83;124608;1099;104194;-74
2023/03/08 11:07:29;;;;;;;15.63;6.53;;;;;;;17.44;38.95;99296.39;124571;1099;104207;-73
2023/03/08 11:10:17;;;;;;;13.98;5.83;;;;;;;17.47;39.32;99290.16;124645;1099;104249;-74
2023/03/08 11:12:49;;;;;;;12.60;5.90;;;;;;;17.57;39.14;99286.51;125790;1098;101871;-74
2023/03/08 11:15:21;;;;;;;11.30;5.40;;;;;;;17.60;39.04;99289.12;124141;1099;104313;-73
2023/03/08 11:17:56;;;;;;;12.93;5.40;;;;;;;17.64;38.59;99290.86;124311;1099;104252;-74
2023/03/08 11:20:33;;;;;;;11.70;5.17;;;;;;;17.64;38.78;99287.30;124603;1099;102019;-74
2023/03/08 11:23:17;;;;;;;11.77;5.53;;;;;;;17.60;38.55;99289.99;124587;1099;104172;-73
2023/03/08 11:25:55;;;;;;;14.17;5.80;;;;;;;17.56;37.99;99288.30;124085;1099;104223;-73
2023/03/08 11:28:48;;;;;;;15.10;5.63;;;;;;;17.55;38.32;99290.97;124616;1099;104654;-74
2023/03/08 11:31:31;;;;;;;14.07;5.87;;;;;;;17.57;38.38;99283.86;124182;1099;104272;-73
2023/03/08 11:34:32;;;;;;;16.43;6.00;;;;;;;17.55;37.89;99291.83;124595;1098;104197;-73
2023/03/08 11:37:13;;;;;;;12.80;5.40;;;;;;;17.63;38.14;99285.57;124385;1098;104238;-74